createdAt,value
2024-04-30T05:38:08.992Z,14.26
2024-04-30T05:41:13.008Z,14.61
2024-04-30T05:44:19.434Z,14.98
2024-04-30T05:47:23.226Z,15.26
2024-04-30T05:50:29.232Z,15.56
2024-04-30T05:53:39.092Z,15.89
2024-04-30T05:56:42.436Z,16.31
2024-04-30T05:59:48.877Z,16.69
2024-04-30T06:02:52.174Z,17.10
2024-04-30T06:05:58.585Z,17.46
2024-04-30T06:09:04.648Z,17.90
2024-04-30T06:12:11.857Z,18.30
2024-04-30T06:15:15.277Z,18.67
2024-04-30T06:18:21.763Z,18.77
2024-04-30T06:21:31.172Z,19.08
2024-04-30T06:24:45.334Z,19.43
2024-04-30T06:27:49.320Z,19.77
2024-04-30T06:30:55.741Z,20.18
2024-04-30T06:33:59.040Z,20.45
2024-04-30T06:37:05.569Z,20.71
2024-04-30T06:40:15.009Z,21.02
2024-04-30T06:43:18.991Z,21.33
2024-04-30T06:46:25.066Z,21.57
2024-04-30T06:49:28.972Z,21.65
2024-04-30T06:52:35.137Z,21.81
2024-04-30T06:55:42.005Z,22.12
2024-04-30T06:58:48.990Z,22.29
2024-04-30T07:01:52.730Z,22.52
2024-04-30T07:04:58.853Z,22.62
2024-04-30T07:08:02.990Z,22.66
2024-04-30T07:11:12.616Z,22.65
2024-04-30T07:14:19.081Z,22.75
2024-04-30T07:17:22.627Z,22.96
2024-04-30T07:20:29.803Z,23.17
2024-04-30T07:23:35.877Z,23.39
2024-04-30T07:26:42.491Z,23.56
2024-04-30T07:29:48.525Z,23.70
2024-04-30T07:32:52.436Z,23.82
2024-04-30T07:35:58.558Z,23.95
2024-04-30T07:39:02.480Z,24.01
2024-04-30T07:42:11.720Z,24.20
2024-04-30T07:45:15.819Z,24.37
2024-04-30T07:48:21.924Z,24.69
2024-04-30T07:51:26.038Z,24.88
2024-04-30T07:54:31.992Z,24.93
2024-04-30T07:57:38.478Z,25.05
2024-04-30T08:00:44.594Z,25.13
2024-04-30T08:03:51.261Z,25.09
2024-04-30T08:06:54.601Z,25.01
2024-04-30T08:10:01.421Z,24.96
2024-04-30T08:13:11.376Z,24.88
2024-04-30T08:16:18.549Z,24.92
2024-04-30T08:19:24.677Z,25.09
2024-04-30T08:22:31.638Z,25.17
2024-04-30T08:25:37.626Z,25.21
2024-04-30T08:28:44.129Z,25.35
2024-04-30T08:31:50.649Z,25.33
2024-04-30T08:34:57.613Z,25.28
2024-04-30T08:38:01.807Z,25.35
2024-04-30T08:41:10.072Z,25.48
2024-04-30T08:44:20.790Z,25.54
2024-04-30T08:47:30.992Z,25.58
2024-04-30T08:50:37.194Z,25.62
2024-04-30T08:53:43.761Z,25.57
2024-04-30T08:56:47.108Z,25.45
2024-04-30T08:59:56.617Z,25.60
2024-04-30T09:03:04.212Z,25.75
2024-04-30T09:06:13.307Z,25.78
2024-04-30T09:09:21.207Z,26.00
2024-04-30T09:12:25.115Z,26.18
2024-04-30T09:15:33.841Z,26.14
2024-04-30T09:18:40.467Z,26.15
2024-04-30T09:21:48.040Z,26.27
2024-04-30T09:24:54.610Z,26.45
2024-04-30T09:27:57.961Z,26.58
2024-04-30T09:31:11.381Z,26.55
2024-04-30T09:34:17.498Z,26.52
2024-04-30T09:37:26.407Z,26.58
2024-04-30T09:40:34.569Z,26.53
2024-04-30T09:43:42.433Z,26.48
2024-04-30T09:46:54.538Z,26.49
2024-04-30T09:50:06.395Z,26.57
2024-04-30T09:53:13.652Z,26.59
2024-04-30T09:56:21.421Z,26.82
2024-04-30T09:59:27.403Z,26.83
2024-04-30T10:02:41.620Z,26.91
2024-04-30T10:05:53.524Z,26.85
2024-04-30T10:09:00.278Z,26.95
2024-04-30T10:12:06.724Z,27.10
2024-04-30T10:15:15.700Z,26.95
2024-04-30T10:18:30.625Z,26.69
2024-04-30T10:21:38.818Z,26.72
2024-04-30T10:24:42.212Z,26.75
2024-04-30T10:27:49.041Z,26.79
2024-04-30T10:30:52.313Z,26.95
2024-04-30T10:34:12.141Z,27.03
2024-04-30T10:37:18.214Z,27.04
2024-04-30T10:40:24.826Z,27.11
2024-04-30T10:43:31.069Z,26.95
2024-04-30T10:46:37.839Z,26.92
2024-04-30T10:49:46.852Z,27.04
2024-04-30T10:52:50.634Z,27.12
2024-04-30T10:56:00.952Z,27.23
2024-04-30T10:59:07.774Z,27.18
2024-04-30T11:02:13.840Z,26.91
2024-04-30T11:05:24.661Z,26.73
2024-04-30T11:08:29.302Z,26.80
2024-04-30T11:11:55.036Z,27.01
2024-04-30T11:14:58.490Z,26.89
2024-04-30T11:18:05.143Z,27.12
2024-04-30T11:21:13.993Z,27.31
2024-04-30T11:24:18.134Z,27.42
2024-04-30T11:27:24.135Z,27.47
2024-04-30T11:30:30.445Z,27.52
2024-04-30T11:33:36.452Z,27.48
2024-04-30T11:36:45.893Z,27.52
2024-04-30T11:39:51.914Z,27.45
2024-04-30T11:42:55.831Z,27.40
2024-04-30T11:46:01.803Z,27.57
2024-04-30T11:49:08.200Z,27.75
2024-04-30T11:52:14.246Z,27.80
2024-04-30T11:55:20.602Z,27.62
2024-04-30T11:58:26.593Z,27.60
2024-04-30T12:01:33.088Z,27.64
2024-04-30T12:04:36.497Z,27.37
2024-04-30T12:07:45.797Z,27.21
2024-04-30T12:10:49.228Z,27.31
2024-04-30T12:13:57.354Z,27.35
2024-04-30T12:17:03.483Z,27.35
2024-04-30T12:20:12.121Z,27.47
2024-04-30T12:23:22.090Z,27.59
2024-04-30T12:26:28.525Z,27.71
2024-04-30T12:29:34.454Z,27.64
2024-04-30T12:32:38.401Z,27.57
2024-04-30T12:35:46.693Z,27.61
2024-04-30T12:38:53.604Z,27.64
2024-04-30T12:41:59.596Z,27.59
2024-04-30T12:45:06.479Z,27.50
2024-04-30T12:48:12.643Z,27.50
2024-04-30T12:51:18.028Z,27.60
2024-04-30T12:54:26.897Z,27.65
2024-04-30T12:57:33.315Z,27.75
2024-04-30T13:00:36.628Z,27.60
2024-04-30T13:03:43.141Z,27.63
2024-04-30T13:06:47.095Z,27.66
2024-04-30T13:09:56.332Z,27.55
2024-04-30T13:13:02.390Z,27.63
2024-04-30T13:16:07.180Z,27.75
2024-04-30T13:19:13.541Z,27.92
2024-04-30T13:22:17.475Z,27.82
2024-04-30T13:25:26.360Z,27.57
2024-04-30T13:28:30.243Z,27.58
2024-04-30T13:31:37.190Z,27.71
2024-04-30T13:34:42.670Z,27.71
2024-04-30T13:37:49.124Z,27.71
2024-04-30T13:41:00.928Z,27.61
2024-04-30T13:44:08.007Z,27.50
2024-04-30T13:47:11.416Z,27.34
2024-04-30T13:50:18.221Z,27.38
2024-04-30T13:53:24.375Z,27.21
2024-04-30T13:56:31.062Z,27.26
2024-04-30T13:59:37.271Z,27.20
2024-04-30T14:02:43.767Z,27.14
2024-04-30T14:05:49.803Z,27.02
2024-04-30T15:32:02.399Z,26.57
2024-04-30T15:35:07.083Z,26.52
2024-04-30T15:38:13.069Z,26.51
2024-04-30T15:41:23.964Z,26.50
2024-04-30T15:44:30.030Z,26.33
2024-04-30T15:47:36.710Z,26.24
2024-04-30T15:50:42.797Z,26.13
2024-04-30T15:53:49.452Z,26.00
2024-04-30T15:57:01.375Z,25.86
2024-04-30T16:00:12.002Z,25.73
2024-04-30T16:03:23.339Z,25.55
2024-04-30T16:06:30.012Z,25.57
2024-04-30T16:09:39.067Z,25.44
2024-04-30T16:12:47.668Z,25.27
2024-04-30T16:16:00.259Z,25.13
2024-04-30T16:19:15.630Z,24.98
2024-04-30T16:22:21.980Z,24.92
2024-04-30T16:25:28.722Z,24.90
2024-04-30T16:28:32.215Z,24.79
2024-04-30T16:31:38.839Z,24.73
2024-04-30T16:34:47.571Z,24.60
2024-04-30T16:37:51.387Z,24.49
2024-04-30T16:40:57.546Z,24.33
2024-04-30T16:44:16.423Z,24.18
2024-04-30T16:47:35.123Z,24.11
2024-04-30T16:50:56.533Z,24.11
2024-04-30T16:54:02.028Z,24.24
2024-04-30T16:57:07.434Z,24.39
2024-04-30T17:00:38.277Z,24.31
2024-04-30T17:03:41.310Z,23.92
2024-04-30T17:06:51.766Z,23.52
2024-04-30T17:09:56.749Z,23.23
2024-04-30T17:13:02.300Z,23.04
2024-04-30T17:16:06.311Z,22.84
2024-04-30T17:19:11.991Z,22.68
2024-04-30T17:22:16.918Z,22.53
2024-04-30T17:25:22.256Z,22.38
2024-04-30T17:28:25.076Z,22.24
2024-04-30T17:31:30.488Z,22.12
2024-04-30T17:34:33.344Z,22.00
2024-04-30T17:37:41.451Z,21.86
2024-04-30T17:40:47.232Z,21.71
2024-04-30T17:43:52.634Z,21.53
2024-04-30T17:46:58.101Z,21.36
2024-04-30T17:50:01.322Z,21.14
2024-04-30T17:53:08.698Z,21.01
2024-04-30T17:56:14.375Z,20.91
2024-04-30T17:59:19.334Z,20.78
2024-04-30T18:02:24.748Z,20.66
2024-04-30T18:05:27.601Z,20.52
2024-04-30T18:08:35.402Z,20.35
2024-04-30T18:11:41.060Z,20.09
2024-04-30T18:14:47.368Z,19.91
2024-04-30T18:17:54.183Z,19.81
2024-04-30T18:20:59.966Z,19.68
2024-04-30T18:24:08.006Z,19.56
2024-04-30T18:27:12.883Z,19.49
2024-04-30T18:30:18.229Z,19.44
2024-04-30T18:33:21.921Z,19.34
2024-04-30T18:36:27.779Z,19.28
2024-04-30T18:39:33.599Z,19.18
2024-04-30T18:42:38.648Z,19.09
2024-04-30T18:45:44.224Z,18.98
2024-04-30T18:48:47.801Z,18.86
2024-04-30T18:51:55.061Z,18.76
2024-04-30T18:55:00.207Z,18.66
2024-04-30T18:58:05.778Z,18.64
2024-04-30T19:01:09.283Z,18.54
2024-04-30T19:04:15.038Z,18.37
2024-04-30T19:07:19.968Z,18.23
2024-04-30T19:10:27.529Z,18.14
2024-04-30T19:13:32.575Z,18.06
2024-04-30T19:16:41.333Z,17.94
2024-04-30T19:19:49.626Z,17.86
2024-04-30T19:22:58.470Z,17.81
2024-04-30T19:26:04.079Z,17.79
2024-04-30T19:29:09.539Z,17.73
2024-04-30T19:32:15.944Z,17.70
2024-04-30T19:35:19.224Z,17.66
2024-04-30T19:38:24.234Z,17.63
2024-04-30T19:41:31.933Z,17.56
2024-04-30T19:45:08.600Z,17.42
2024-04-30T19:48:17.015Z,17.37
2024-04-30T19:51:22.675Z,17.31
2024-04-30T19:54:28.162Z,17.22
2024-04-30T19:57:33.148Z,17.20
2024-04-30T20:00:38.793Z,17.14
2024-04-30T20:03:41.819Z,17.05
2024-04-30T20:06:47.529Z,16.92
2024-04-30T20:09:52.652Z,16.87
2024-04-30T20:12:58.151Z,16.74
2024-04-30T20:16:03.160Z,16.58
2024-04-30T20:19:09.353Z,16.34
